< < Back
Terminal Aerodrome Forecast


Current Version              Previous Versions:   1  2  3  4  5  6  7  8  9  

Terminal Aerodrome Forecast

020
FTUS42 KFFC 242300
TAFFTY
TAF
KFTY 242320Z 2500/2524 30005KT P6SM SKC
     FM250200 00000KT P6SM SKC
     FM251500 33007KT P6SM SKC=



Latest METAR

528
SAUS70 KWBC 251100 RRC
MTRFTY
METAR KFTY 251053Z 33005KT 10SM CLR 09/06 A3006 RMK AO2 SLP176
T00940056


USA.gov is the U.S. government's official web portal to all federal, state and local government web resources and services.